WetterOnline ( http://www.wetteronline.de )

Wetter aktuell Großer Arber

Aktuelles Wetter: Großer Arber (1446m)

6-stündlich | Neueste Meldungen
Ortszeit Temperatur Wetter
So, 18.11. 13:00 -0.5° C wolkenlos
So, 18.11. 7:00 -4.8° C wolkenlos
So, 18.11. 1:00 -4.7° C leicht bewölkt
Sa, 17.11. 19:00 -5.0° C leicht bewölkt
Sa, 17.11. 13:00 -1.7° C wolkenlos
Sa, 17.11. 7:00 -3.0° C wolkenlos
Sa, 17.11. 1:00 -2.7° C wolkenlos
Fr, 16.11. 19:00 -3.0° C Nebel
Ortszeit Temperatur Wetter
So, 18.11. 16:30 -5.0° C bedeckt
So, 18.11. 16:20 -5.0° C bedeckt
So, 18.11. 16:10 -4.1° C bedeckt
So, 18.11. 16:00 -3.4° C bedeckt
So, 18.11. 15:50 -3.4° C bedeckt
So, 18.11. 15:40 -3.6° C bewölkt
So, 18.11. 15:30 -3.6° C leicht bewölkt
So, 18.11. 15:00 -2.8° C wolkenlos
So, 18.11. 14:30 -3.0° C wolkenlos
So, 18.11. 14:00 -2.1° C wolkenlos
So, 18.11. 13:30 -1.6° C wolkenlos
Ortszeit Relative Feuchte Sichtweite
So, 18.11. 13:00 64% 50 km
So, 18.11. 7:00 79% 40 km
So, 18.11. 1:00 91% 5.0 km
Sa, 17.11. 19:00 91% 21 km
Sa, 17.11. 13:00 63% 60 km
Sa, 17.11. 7:00 82% 45 km
Sa, 17.11. 1:00 80% 45 km
Fr, 16.11. 19:00 97% <100 m
Ortszeit Relative Feuchte Sichtweite
So, 18.11. 16:30 82% 35 km
So, 18.11. 16:20 82% -
So, 18.11. 16:10 76% -
So, 18.11. 16:00 74% 60 km
So, 18.11. 15:50 74% -
So, 18.11. 15:40 73% -
So, 18.11. 15:30 76% 50 km
So, 18.11. 15:00 76% 65 km
So, 18.11. 14:30 74% 35 km
So, 18.11. 14:00 72% 60 km
So, 18.11. 13:30 68% 35 km
Ortszeit Niederschlagsmenge Niederschlagsart
So, 18.11. 13:00 0.0 l/m2 in 6 Std. -
So, 18.11. 7:00 0.0 l/m2 in 12 Std. -
So, 18.11. 1:00 0.1 l/m2 in 6 Std. Schnee
Sa, 17.11. 19:00 0.1 l/m2 in 12 Std. Schnee
Sa, 17.11. 13:00 0.0 l/m2 in 6 Std. -
Sa, 17.11. 7:00 0.1 l/m2 in 12 Std. -
Sa, 17.11. 1:00 0.1 l/m2 in 6 Std. Niederschlag
Fr, 16.11. 19:00 0.0 l/m2 in 12 Std. -
Ortszeit Niederschlagsmenge Niederschlagsart
So, 18.11. 16:30 0.0 l/m2 in 1 Std. -
So, 18.11. 16:20 keine Meldung -
So, 18.11. 16:10 keine Meldung -
So, 18.11. 16:00 0.0 l/m2 in 1 Std. -
So, 18.11. 15:50 keine Meldung -
So, 18.11. 15:40 keine Meldung -
So, 18.11. 15:30 0.0 l/m2 in 1 Std. -
So, 18.11. 15:00 0.0 l/m2 in 1 Std. -
So, 18.11. 14:30 0.0 l/m2 in 1 Std. -
So, 18.11. 14:00 0.0 l/m2 in 1 Std. -
So, 18.11. 13:30 0.0 l/m2 in 1 Std. -
Ortszeit Stärke Spitze Richtung
km/h Bft. km/h Grad Sektor
So, 18.11. 13:00 9 2 37 130° SO
So, 18.11. 7:00 19 3 50 100° O
So, 18.11. 1:00 26 4 50 70° O
Sa, 17.11. 19:00 28 4 50 70° O
Sa, 17.11. 13:00 17 3 50 70° O
Sa, 17.11. 7:00 26 4 57 80° O
Sa, 17.11. 1:00 29 5 58 110° O
Fr, 16.11. 19:00 22 4 37 80° O
Ortszeit Stärke Spitze Richtung
km/h Bft. km/h Grad Sektor
So, 18.11. 16:30 20 4 30 50° NO
So, 18.11. 16:20 20 4 - 50° NO
So, 18.11. 16:10 19 3 - 70° O
So, 18.11. 16:00 15 3 31 70° O
So, 18.11. 15:50 15 3 - 70° O
So, 18.11. 15:40 11 2 - 60° NO
So, 18.11. 15:30 20 4 31 60° NO
So, 18.11. 15:00 20 4 28 70° O
So, 18.11. 14:30 14 3 25 60° NO
So, 18.11. 14:00 14 3 25 80° O
So, 18.11. 13:30 9 2 20 80° O
Ortszeit Untergrenze Bedeckung Gattung
total tief tief mittel hoch
So, 18.11. 13:00 - 0/8 0/8 - - -
So, 18.11. 7:00 - 0/8 0/8 - - -
So, 18.11. 1:00 <30 m 2/8 2/8 - - -
Sa, 17.11. 19:00 30 m 3/8 2/8 - - -
Sa, 17.11. 13:00 - 0/8 0/8 - - -
Sa, 17.11. 7:00 - 0/8 0/8 - - -
Sa, 17.11. 1:00 - 0/8 0/8 - - -
Fr, 16.11. 19:00 <30 m 8/8 8/8 - - -
Ortszeit Bedeckungsgrad in Achtel und Wolkenuntergrenze
So, 18.11. 16:30 7(3000m) 8(3600m)
So, 18.11. 16:20 7(3000m) 8(3600m)
So, 18.11. 16:10 8(3300m)
So, 18.11. 16:00 8(3300m)
So, 18.11. 15:50 8(3300m)
So, 18.11. 15:40 7(3600m)
So, 18.11. 15:30 1(1410m) 3(3600m)
So, 18.11. 15:00 keine Wolken
So, 18.11. 14:30 keine Wolken
So, 18.11. 14:00 keine Wolken
So, 18.11. 13:30 keine Wolken
Ortszeit Stationsdruck (hPa) Tendenz (hPa in 3 Std.)
So, 18.11. 13:00 857 - 1,2
So, 18.11. 7:00 859 - 1,1
So, 18.11. 1:00 860 - 1,3
Sa, 17.11. 19:00 861 - 0,5
Sa, 17.11. 13:00 862 - 0,4
Sa, 17.11. 7:00 862 - 0,1
Sa, 17.11. 1:00 862 - 0,3
Fr, 16.11. 19:00 862 - 0,1
Ortszeit Stationsdruck (hPa) Tendenz (hPa in 3 Std.)
So, 18.11. 16:30 854 - 2,2
So, 18.11. 16:20 854 keine Meldung
So, 18.11. 16:10 854 keine Meldung
So, 18.11. 16:00 855 - 2,4
So, 18.11. 15:50 855 keine Meldung
So, 18.11. 15:40 855 keine Meldung
So, 18.11. 15:30 855 - 2,1
So, 18.11. 15:00 856 - 2,0
So, 18.11. 14:30 856 - 1,9
So, 18.11. 14:00 856 - 2,0
So, 18.11. 13:30 857 - 1,3
Ortszeit Schneehöhe (cm)
So, 18.11. 13:00 0
So, 18.11. 7:00 0
So, 18.11. 1:00 0
Sa, 17.11. 19:00 0
Sa, 17.11. 13:00 0
Sa, 17.11. 7:00 0
Sa, 17.11. 1:00 0
Fr, 16.11. 19:00 0
Ortszeit Schneehöhe (cm)
So, 18.11. 16:30 0
So, 18.11. 16:20 0
So, 18.11. 16:10 0
So, 18.11. 16:00 0
So, 18.11. 15:50 0
So, 18.11. 15:40 0
So, 18.11. 15:30 0
So, 18.11. 15:00 0
So, 18.11. 14:30 0
So, 18.11. 14:00 0
So, 18.11. 13:30 0
Link zu dieser Seite / Seite empfehlen

Das Wetter in ...